Airfield :







YOU CAN JOIN US ON...

 
LOGIN :

Register | Disclaimer

   EN    FR    IT 

 









Legend :    VFR   Marginal VFR   IFR   Intensive IFR   Very Intensive IFR
Visi :
Ceiling :
>= 8 km
>= 3000ft
5 to 8 km
1000 to 3000 ft
1500m to 5 km
500 to 1000 ft
800 to 1500m
200 to 500 ft
< 800m
< 200 ft
Symbols :   Thunderstorms  Fog  Heavy snow  Heavy precipitations  Wind > 20 kt






- Airport Elevation : 488 ft
- IATA code : EEN


KEEN - Dillant Hopkins

CURRENT METAR :
  • 170248Z AUTO 32004KT 10SM RA FEW017 SCT021 OVC060 16/14 A2969 RMK AO2 P0004 $

EXPIRED METARs :
  • 170156Z AUTO 20006KT 10SM -RA SCT017 BKN024 OVC042 16/16 A2967 RMK AO2 SLP050 P0004 T01610156 $
  • 170133Z AUTO 00000KT 6SM RA BR SCT006 OVC020 16/16 A2966 RMK AO2 P0003 $
  • 170110Z AUTO 18005KT 10SM -RA BKN008 BKN011 OVC019 16/16 A2967 RMK AO2 CIG 006V010 P0000 $
  • 170056Z AUTO 00000KT 7SM -RA BKN011 BKN017 OVC033 16/16 A2966 RMK AO2 SLP047 P0009 T01610156 $
  • 170025Z AUTO 35004KT 10SM -RA BKN011 BKN022 OVC050 17/16 A2965 RMK AO2 PRESRR P0005 $
  • 170018Z AUTO 36007KT 10SM -RA FEW011 BKN040 OVC060 17/16 A2964 RMK AO2 P0005 $
  • 170003Z AUTO 32006G18KT 8SM +RA FEW020 BKN027 OVC036 18/16 A2963 RMK AO2 P0004 $
  • 162356Z AUTO 23010KT 10SM RA OVC030 20/16 A2963 RMK AO2 RAB45 SLP034 P0001 60001 T02000161 10239 20200 53004 $

TAF N/A
KZBW FIR / North America



MET'MAP, your aeronautical weather chart ! - Copyright ORBIFLY December 2007 - Disclaimer

ORBIFLY MET'MAP TEAM :

Programming & Development : Alexandra Zaïnal
Concept & original design : Baudouin d'Aumeries
Assistance for programming : Marc-Olivier Méhu
Technical & hardware support : Manuel Goepfert

Contact : metmap@orbifly.com




SOURCES & CREDITS :

   NOAA